Tropical Cyclones
[Index]
Main Index Home Page Stock Weather Photos Extreme Storms Discussion Storm News and Storm Chasing Reports Tropical Cyclones / Hurricanes / Typhoons Weather Data and Links Wild Fires / Bushfires Weather Observation Techniques Weather Picture Catalogue Tornado Pictures and Reports Stock Video Footage and DVDs for sale
Season 2007-2008 Tropical Cyclone ELNUS Track Map
Season 2007-2008 Summaries: [BoM-AU] [JTWC-AU] [JTWC-SIO] [JTWC-SPAC] [JTWC-SH]
<<- Previous TC | JTWC 2007-2008 Season | Next TC ->>

click for intensity scale information  Lat/long Grid: Show Hide

 Date Labels: Show Hide

Joint Typhoon Warning Centre Cyclone Data

Name: ELNUS

29 Dec 2007 12:00 UTC to 04 Jan 2008 18:00 UTC

    date/time    lat    long     hPa   cat  kts
2007-12-29 12   19.6    42.6    1008         15          
2007-12-29 18   19.2    42.5    1010         15          
2007-12-30 00   18.8    42.4    1010         15          
2007-12-30 06   18.5    42.2    1010         15          
2007-12-30 12   18.2    41.9    1003         30          
2007-12-30 18   18.1    41.6    1000         30          
2007-12-31 00   18.1    41.4    1000         30          
2007-12-31 06   18.2    41.3    1000         30          
2007-12-31 12   18.4    41.2     996         35          
2007-12-31 18   18.6    41.2     996         35          
2008-01-01 00   19.0    41.0     993    1    40          
2008-01-01 06   19.2    40.7     993    1    40          
2008-01-01 12   19.4    40.4     993    1    40          
2008-01-01 18   19.6    40.2     996         35          
2008-01-02 00   19.8    40.1     996         35          
2008-01-02 06   19.9    40.1     993    1    40          
2008-01-02 12   20.4    40.2     993    1    40          
2008-01-02 18   21.0    40.4     993    1    40          
2008-01-03 00   21.8    40.7     996         35          
2008-01-03 06   22.6    41.1     996         35          
2008-01-03 12   23.5    41.7     996         35          
2008-01-03 18   25.0    42.3     996         35          
2008-01-04 00   25.6    42.5    1007         20          
2008-01-04 06   26.0    42.6    1007         20          
2008-01-04 12   26.4    42.7    1007         20          
2008-01-04 18   26.8    42.8    1007         20          
Winds are 1-min average.

Tropical cyclone tracks developed by Michael Bath using data from the Joint Typhoon Warning Centre Best Tracks and Google Maps.


[Australian Severe Weather index] [Copyright Notice] [Email Contacts] [Search This Site] [Privacy Policy]
Document: tropical_cyclone_elnus.htm Updated: 28 June 2017